Time;durP1;ratioP1;P1;durP2;ratioP2;P2;SDS_P1;SDS_P2;PMS_P1;PMS_P2;Temp;Humidity;BMP_temperature;BMP_pressure;BME280_temperature;BME280_humidity;BME280_pressure;Samples;Min_cycle;Max_cycle;Signal;HPM_P1;HPM_P2
2023/05/09 01:15:54;;;;;;;;;;;15.50;58.70;;;;;;5055149;28;19975;-66
2023/05/09 01:18:24;;;;;;;;;;;15.60;57.20;;;;;;5036983;28;19955;-68
2023/05/09 01:21:10;;;;;;;;;;;15.80;57.70;;;;;;5055051;28;20007;-67
2023/05/09 01:23:49;;;;;;;;;;;15.90;56.80;;;;;;5040058;28;19923;-67
2023/05/09 01:26:21;;;;;;;;;;;16.00;56.00;;;;;;5059021;28;19909;-67
2023/05/09 01:29:05;;;;;;;;;;;16.00;57.50;;;;;;5048547;28;19933;-67
2023/05/09 01:31:33;;;;;;;;;;;16.00;56.40;;;;;;5047048;28;20277;-67
2023/05/09 01:33:59;;;;;;;;;;;15.80;58.20;;;;;;5043672;28;19935;-67
2023/05/09 01:36:28;;;;;;;;;;;15.80;55.90;;;;;;5046494;28;19909;-68
2023/05/09 01:38:55;;;;;;;;;;;15.80;57.40;;;;;;5057143;28;19924;-67
2023/05/09 01:41:21;;;;;;;;;;;16.00;56.00;;;;;;5065659;28;19979;-65
2023/05/09 01:43:48;;;;;;;;;;;16.20;56.40;;;;;;5035530;28;19917;-65
2023/05/09 01:46:15;;;;;;;;;;;16.20;56.80;;;;;;5044147;28;19917;-65
2023/05/09 01:48:42;;;;;;;;;;;16.20;56.30;;;;;;5073255;28;19930;-66
2023/05/09 01:51:09;;;;;;;;;;;16.20;57.30;;;;;;5053657;28;19917;-66
2023/05/09 01:53:36;;;;;;;;;;;16.20;56.20;;;;;;5045600;28;20015;-65
2023/05/09 01:56:03;;;;;;;;;;;16.20;55.40;;;;;;5072048;28;19912;-65
2023/05/09 01:58:31;;;;;;;;;;;16.30;56.10;;;;;;5043073;28;19940;-65
2023/05/09 02:00:57;;;;;;;;;;;16.20;55.80;;;;;;5043321;28;20231;-65
2023/05/09 02:03:24;;;;;;;;;;;16.20;54.90;;;;;;5044813;28;19909;-66
2023/05/09 02:05:51;;;;;;;;;;;16.30;54.40;;;;;;5055203;28;19962;-65
2023/05/09 02:08:20;;;;;;;;;;;16.30;54.80;;;;;;5067148;28;19913;-65
2023/05/09 02:10:47;;;;;;;;;;;16.20;55.60;;;;;;5060359;28;20046;-66
2023/05/09 02:13:14;;;;;;;;;;;16.10;57.20;;;;;;5060596;28;19955;-65
2023/05/09 02:15:41;;;;;;;;;;;16.10;58.20;;;;;;5033512;28;19931;-65
2023/05/09 02:18:08;;;;;;;;;;;16.20;56.80;;;;;;5057505;28;19921;-66
2023/05/09 02:20:34;;;;;;;;;;;16.20;56.20;;;;;;5064821;28;20399;-67
2023/05/09 02:23:01;;;;;;;;;;;16.20;56.60;;;;;;5061876;28;19912;-66
2023/05/09 02:25:28;;;;;;;;;;;16.30;55.90;;;;;;5043523;28;20262;-67
2023/05/09 02:27:55;;;;;;;;;;;16.30;56.80;;;;;;5045523;28;19923;-66
2023/05/09 02:30:24;;;;;;;;;;;16.30;57.40;;;;;;5052374;28;19924;-66
2023/05/09 02:32:55;;;;;;;;;;;16.40;57.60;;;;;;5047239;28;20335;-66
2023/05/09 02:35:21;;;;;;;;;;;16.30;57.80;;;;;;5045156;28;19913;-66
2023/05/09 02:37:48;;;;;;;;;;;16.30;58.20;;;;;;5066656;28;19920;-66
2023/05/09 02:40:15;;;;;;;;;;;16.30;58.00;;;;;;5054835;28;20434;-66
2023/05/09 02:42:41;;;;;;;;;;;16.40;58.30;;;;;;5042187;28;19913;-67
2023/05/09 02:45:09;;;;;;;;;;;16.70;57.80;;;;;;5055193;28;20282;-66
2023/05/09 02:47:36;;;;;;;;;;;16.70;57.30;;;;;;5059233;28;19913;-66
2023/05/09 02:50:04;;;;;;;;;;;16.70;56.60;;;;;;5061940;28;19921;-67
2023/05/09 02:52:30;;;;;;;;;;;16.80;56.10;;;;;;5059822;28;20016;-67
2023/05/09 02:54:57;;;;;;;;;;;16.80;56.20;;;;;;5055478;28;20003;-66
2023/05/09 02:57:24;;;;;;;;;;;16.70;57.60;;;;;;5064550;28;19990;-67
2023/05/09 02:59:50;;;;;;;;;;;16.70;57.90;;;;;;5070298;28;20329;-66
2023/05/09 03:02:17;;;;;;;;;;;16.70;57.10;;;;;;5062133;28;19966;-66
2023/05/09 03:04:44;;;;;;;;;;;16.60;57.80;;;;;;5059559;28;19995;-67
2023/05/09 03:07:11;;;;;;;;;;;16.60;58.90;;;;;;5062583;28;20356;-67
2023/05/09 03:09:38;;;;;;;;;;;16.60;59.40;;;;;;5052928;28;19969;-66
2023/05/09 03:12:05;;;;;;;;;;;16.70;57.60;;;;;;5058400;28;20386;-67
2023/05/09 03:14:31;;;;;;;;;;;16.70;57.60;;;;;;5046977;28;19925;-68
2023/05/09 03:16:58;;;;;;;;;;;16.70;57.60;;;;;;5022418;28;19952;-66
2023/05/09 03:19:25;;;;;;;;;;;16.60;57.70;;;;;;5039943;28;20012;-68
2023/05/09 03:21:52;;;;;;;;;;;16.60;57.90;;;;;;5039610;28;19967;-68
2023/05/09 03:24:18;;;;;;;;;;;16.70;57.10;;;;;;5043161;28;20007;-67
2023/05/09 03:26:45;;;;;;;;;;;16.60;58.10;;;;;;5044130;28;19924;-68
2023/05/09 03:29:12;;;;;;;;;;;16.60;58.40;;;;;;5032614;28;20410;-65
2023/05/09 03:31:39;;;;;;;;;;;16.60;58.10;;;;;;5045096;28;19913;-67
2023/05/09 03:34:06;;;;;;;;;;;16.60;58.70;;;;;;5047698;28;19921;-68
2023/05/09 03:36:32;;;;;;;;;;;16.70;57.80;;;;;;5049305;28;20062;-68
2023/05/09 03:38:59;;;;;;;;;;;16.70;57.80;;;;;;5043540;28;19991;-67
2023/05/09 03:41:26;;;;;;;;;;;16.70;58.00;;;;;;5043672;28;19909;-68
2023/05/09 03:43:53;;;;;;;;;;;16.70;58.10;;;;;;5050331;28;20149;-68
2023/05/09 03:46:19;;;;;;;;;;;16.70;58.00;;;;;;5041625;28;19917;-68
2023/05/09 03:48:46;;;;;;;;;;;16.70;58.50;;;;;;5025348;28;19914;-67
2023/05/09 03:51:13;;;;;;;;;;;16.70;57.90;;;;;;5039434;28;19927;-67
2023/05/09 03:53:39;;;;;;;;;;;16.60;57.70;;;;;;5016829;28;19913;-67
2023/05/09 03:56:06;;;;;;;;;;;16.70;57.50;;;;;;5034073;28;19928;-67
2023/05/09 03:58:33;;;;;;;;;;;16.70;58.30;;;;;;5029222;28;19929;-68
2023/05/09 04:01:00;;;;;;;;;;;16.80;58.60;;;;;;5034767;28;19913;-67
2023/05/09 04:03:26;;;;;;;;;;;16.80;56.80;;;;;;5028392;28;19913;-67
2023/05/09 04:05:53;;;;;;;;;;;16.80;57.80;;;;;;5030197;28;20058;-67
2023/05/09 04:08:20;;;;;;;;;;;16.80;57.50;;;;;;5028122;28;19966;-67
2023/05/09 04:10:47;;;;;;;;;;;16.80;58.20;;;;;;5032077;28;19917;-66
2023/05/09 04:13:14;;;;;;;;;;;16.70;58.60;;;;;;5037668;28;19913;-67
2023/05/09 04:15:40;;;;;;;;;;;16.70;58.10;;;;;;5042952;28;19920;-67
2023/05/09 04:18:07;;;;;;;;;;;16.70;58.10;;;;;;5061752;28;19930;-67
2023/05/09 04:20:34;;;;;;;;;;;16.70;57.30;;;;;;5053191;28;19913;-67
2023/05/09 04:44:39;;;;;;;;;;;16.70;58.30;;;;;;5103845;28;20005;-67
2023/05/09 04:47:06;;;;;;;;;;;16.70;56.30;;;;;;5087379;28;19924;-67
2023/05/09 04:49:33;;;;;;;;;;;16.70;57.80;;;;;;5085402;28;19918;-67
2023/05/09 04:51:59;;;;;;;;;;;16.70;57.60;;;;;;5090476;28;19920;-67
2023/05/09 04:54:26;;;;;;;;;;;16.70;57.20;;;;;;5089768;28;19920;-67
2023/05/09 04:56:53;;;;;;;;;;;16.70;58.50;;;;;;5092944;28;19912;-66
2023/05/09 04:59:19;;;;;;;;;;;16.70;58.40;;;;;;5086482;28;20538;-66
2023/05/09 05:01:46;;;;;;;;;;;16.70;57.70;;;;;;5091023;28;20370;-67
2023/05/09 05:04:13;;;;;;;;;;;16.80;58.00;;;;;;5090976;28;20000;-67
2023/05/09 05:06:40;;;;;;;;;;;16.80;57.90;;;;;;5090694;28;19912;-66
2023/05/09 05:09:06;;;;;;;;;;;16.80;58.80;;;;;;5091922;28;19966;-67
2023/05/09 05:11:33;;;;;;;;;;;16.80;58.90;;;;;;5091995;28;19958;-67
2023/05/09 05:14:00;;;;;;;;;;;16.70;58.00;;;;;;5092925;28;20386;-67
2023/05/09 05:16:26;;;;;;;;;;;16.80;59.00;;;;;;5084566;28;19912;-67
2023/05/09 05:18:53;;;;;;;;;;;16.80;58.70;;;;;;5091486;28;19931;-68
2023/05/09 05:21:20;;;;;;;;;;;16.80;59.30;;;;;;5091910;28;20630;-66
2023/05/09 05:23:47;;;;;;;;;;;16.80;59.10;;;;;;5090814;28;20534;-67
2023/05/09 05:26:13;;;;;;;;;;;16.70;59.30;;;;;;5092217;28;19920;-67
2023/05/09 05:28:40;;;;;;;;;;;16.80;59.60;;;;;;5091026;28;19912;-66
2023/05/09 05:31:07;;;;;;;;;;;16.80;58.40;;;;;;5091503;28;19919;-67
2023/05/09 05:33:34;;;;;;;;;;;16.80;58.50;;;;;;5078009;28;20363;-67
2023/05/09 05:36:00;;;;;;;;;;;16.80;59.50;;;;;;5091939;28;20000;-67
2023/05/09 05:38:27;;;;;;;;;;;16.80;60.20;;;;;;5090213;28;20403;-66
2023/05/09 05:40:54;;;;;;;;;;;16.70;59.20;;;;;;5091750;28;19916;-67
2023/05/09 05:43:21;;;;;;;;;;;16.70;59.70;;;;;;5088646;28;19912;-66
2023/05/09 05:45:47;;;;;;;;;;;16.80;59.00;;;;;;5071207;28;19916;-66
2023/05/09 05:48:14;;;;;;;;;;;16.70;60.30;;;;;;5086738;28;20378;-67
2023/05/09 05:50:41;;;;;;;;;;;16.70;60.10;;;;;;5088316;28;20251;-67
2023/05/09 05:53:07;;;;;;;;;;;16.60;59.50;;;;;;5075865;28;19927;-67
2023/05/09 05:55:34;;;;;;;;;;;16.70;60.00;;;;;;5088273;28;19919;-68
2023/05/09 05:58:01;;;;;;;;;;;16.60;58.30;;;;;;5087828;28;19916;-67
2023/05/09 06:00:28;;;;;;;;;;;16.60;58.40;;;;;;5089296;28;19935;-67
2023/05/09 06:02:55;;;;;;;;;;;16.60;59.80;;;;;;5089496;28;19927;-66
2023/05/09 06:05:21;;;;;;;;;;;16.50;59.80;;;;;;5089959;28;19924;-67
2023/05/09 06:07:48;;;;;;;;;;;16.50;60.30;;;;;;5088936;28;20340;-66
2023/05/09 06:10:15;;;;;;;;;;;16.50;59.10;;;;;;5073217;28;19946;-67
2023/05/09 06:12:42;;;;;;;;;;;16.40;59.10;;;;;;5088007;28;19920;-66
2023/05/09 06:15:09;;;;;;;;;;;16.50;59.50;;;;;;5079450;28;19920;-67
2023/05/09 06:17:36;;;;;;;;;;;16.40;59.90;;;;;;5101682;28;19971;-67
2023/05/09 06:20:03;;;;;;;;;;;16.30;59.40;;;;;;5095778;28;19912;-67
2023/05/09 06:22:29;;;;;;;;;;;16.30;60.00;;;;;;5075640;28;20263;-67
2023/05/09 06:24:56;;;;;;;;;;;16.30;60.30;;;;;;5092444;28;19916;-68
2023/05/09 06:27:23;;;;;;;;;;;16.20;60.90;;;;;;5093001;28;19912;-66
2023/05/09 06:29:51;;;;;;;;;;;16.20;60.70;;;;;;5093007;28;19916;-66
2023/05/09 06:32:18;;;;;;;;;;;16.20;60.90;;;;;;5070585;28;19954;-66
2023/05/09 06:34:45;;;;;;;;;;;16.20;61.10;;;;;;5105017;28;19920;-66
2023/05/09 06:37:11;;;;;;;;;;;16.10;61.20;;;;;;5090141;28;20145;-66
2023/05/09 06:39:38;;;;;;;;;;;16.10;60.00;;;;;;5102118;28;19926;-66
2023/05/09 06:42:05;;;;;;;;;;;16.10;60.20;;;;;;5093515;28;19962;-66
2023/05/09 06:44:32;;;;;;;;;;;16.10;60.20;;;;;;5079628;28;19912;-66
2023/05/09 06:46:58;;;;;;;;;;;16.00;60.60;;;;;;5098535;28;19946;-66
2023/05/09 06:49:25;;;;;;;;;;;16.00;59.90;;;;;;5098941;28;19919;-66
2023/05/09 06:51:52;;;;;;;;;;;16.00;59.70;;;;;;5089481;28;20012;-66
2023/05/09 06:54:19;;;;;;;;;;;16.00;59.90;;;;;;5095049;28;19916;-66
2023/05/09 06:56:45;;;;;;;;;;;15.90;60.30;;;;;;5092416;28;19912;-66
2023/05/09 06:59:12;;;;;;;;;;;15.90;60.50;;;;;;5089773;28;19981;-66
2023/05/09 07:01:39;;;;;;;;;;;15.90;60.90;;;;;;5094871;28;19935;-66
2023/05/09 07:04:06;;;;;;;;;;;15.80;61.00;;;;;;5072866;28;19919;-66
2023/05/09 07:06:33;;;;;;;;;;;15.80;61.20;;;;;;5072815;28;19919;-66
2023/05/09 07:09:00;;;;;;;;;;;15.80;61.40;;;;;;5089594;28;19947;-66
2023/05/09 07:11:26;;;;;;;;;;;15.70;62.00;;;;;;5074456;28;20423;-66
2023/05/09 07:13:53;;;;;;;;;;;15.70;61.30;;;;;;5092909;28;19912;-66
2023/05/09 07:16:21;;;;;;;;;;;15.70;61.60;;;;;;5092542;28;20389;-66
2023/05/09 07:18:48;;;;;;;;;;;15.70;61.90;;;;;;5092928;28;19964;-66
2023/05/09 07:21:15;;;;;;;;;;;15.70;62.20;;;;;;5090423;28;19978;-66
2023/05/09 07:23:41;;;;;;;;;;;15.70;62.60;;;;;;5073878;28;19912;-66
2023/05/09 07:26:08;;;;;;;;;;;15.60;62.40;;;;;;5077924;28;20306;-67
2023/05/09 07:28:35;;;;;;;;;;;15.60;62.40;;;;;;5076126;28;19916;-65
2023/05/09 07:31:02;;;;;;;;;;;15.60;62.40;;;;;;5087831;28;19919;-66
2023/05/09 07:33:29;;;;;;;;;;;15.60;61.90;;;;;;5089820;28;19968;-66
2023/05/09 07:35:57;;;;;;;;;;;15.60;62.10;;;;;;5103137;28;20316;-66
2023/05/09 07:38:24;;;;;;;;;;;15.60;62.00;;;;;;5083860;28;20010;-66
2023/05/09 07:40:52;;;;;;;;;;;15.60;62.00;;;;;;5091138;28;19958;-66
2023/05/09 07:43:18;;;;;;;;;;;15.50;62.00;;;;;;5091535;28;20420;-65
2023/05/09 07:45:45;;;;;;;;;;;15.50;62.10;;;;;;5096641;28;20381;-67
2023/05/09 07:48:12;;;;;;;;;;;15.50;61.90;;;;;;5073570;28;19965;-66
2023/05/09 07:50:39;;;;;;;;;;;15.50;61.90;;;;;;5087899;28;20369;-66
2023/05/09 07:53:06;;;;;;;;;;;15.50;61.70;;;;;;5100261;28;20267;-67
2023/05/09 07:55:33;;;;;;;;;;;15.40;62.10;;;;;;5076672;28;19916;-67
2023/05/09 07:57:59;;;;;;;;;;;15.40;63.50;;;;;;5088124;28;20072;-67
2023/05/09 08:00:26;;;;;;;;;;;15.40;63.20;;;;;;5089739;28;20334;-68
2023/05/09 08:02:53;;;;;;;;;;;15.40;63.20;;;;;;5089847;28;19923;-66
2023/05/09 08:05:20;;;;;;;;;;;15.40;63.30;;;;;;5091613;28;20377;-66
2023/05/09 08:07:46;;;;;;;;;;;15.30;63.20;;;;;;5093135;28;20014;-66
2023/05/09 08:10:13;;;;;;;;;;;15.30;63.00;;;;;;5088584;28;19995;-67
2023/05/09 08:12:40;;;;;;;;;;;15.30;62.90;;;;;;5087706;28;19931;-66
2023/05/09 08:15:07;;;;;;;;;;;15.30;62.90;;;;;;5078212;28;20352;-67
2023/05/09 08:17:33;;;;;;;;;;;15.30;62.30;;;;;;5099437;28;19916;-66
2023/05/09 08:20:00;;;;;;;;;;;15.30;61.90;;;;;;5086953;28;19924;-65
2023/05/09 08:22:27;;;;;;;;;;;15.30;62.80;;;;;;5096382;28;19920;-65
2023/05/09 08:24:54;;;;;;;;;;;15.30;62.50;;;;;;5096679;28;19912;-65
2023/05/09 08:27:20;;;;;;;;;;;15.30;62.70;;;;;;5090167;28;19916;-65
2023/05/09 08:29:47;;;;;;;;;;;15.30;63.30;;;;;;5103836;28;20724;-66
2023/05/09 08:32:14;;;;;;;;;;;15.30;63.00;;;;;;5108111;28;19922;-67
2023/05/09 08:34:40;;;;;;;;;;;15.20;63.10;;;;;;5072279;28;19942;-66
2023/05/09 08:37:07;;;;;;;;;;;15.20;63.20;;;;;;5100515;28;20412;-66
2023/05/09 08:39:34;;;;;;;;;;;15.20;63.40;;;;;;5100899;28;19920;-66
2023/05/09 08:42:01;;;;;;;;;;;15.20;63.70;;;;;;5089239;28;19919;-67
2023/05/09 08:44:29;;;;;;;;;;;15.20;63.60;;;;;;5095791;28;19919;-66
2023/05/09 08:46:56;;;;;;;;;;;15.10;63.30;;;;;;5095636;28;20016;-67
2023/05/09 08:49:23;;;;;;;;;;;15.10;63.50;;;;;;5097067;28;19957;-67
2023/05/09 08:51:49;;;;;;;;;;;15.10;63.80;;;;;;5096945;28;20649;-67
2023/05/09 08:54:16;;;;;;;;;;;15.00;64.00;;;;;;5087750;28;20385;-67
2023/05/09 08:56:43;;;;;;;;;;;14.90;64.40;;;;;;5086286;28;20054;-67
2023/05/09 08:59:10;;;;;;;;;;;14.90;65.00;;;;;;5062849;28;19955;-67
2023/05/09 09:01:36;;;;;;;;;;;14.80;65.40;;;;;;5083284;28;19920;-66
2023/05/09 09:04:06;;;;;;;;;;;14.70;65.80;;;;;;5103177;28;19916;-66
2023/05/09 09:06:33;;;;;;;;;;;14.70;65.70;;;;;;5088092;28;19919;-66
2023/05/09 09:39:59;;;;;;;;;;;14.50;65.80;;;;;;5066174;28;19935;-65
2023/05/09 09:42:26;;;;;;;;;;;14.50;65.20;;;;;;5083533;28;20334;-66
2023/05/09 09:44:56;;;;;;;;;;;14.50;65.10;;;;;;5055399;28;20374;-65
2023/05/09 09:47:32;;;;;;;;;;;14.50;65.00;;;;;;5088126;28;19915;-67
2023/05/09 09:50:04;;;;;;;;;;;14.50;65.10;;;;;;5072543;28;20392;-67
2023/05/09 09:52:30;;;;;;;;;;;14.50;65.20;;;;;;5064779;28;19941;-67
2023/05/09 09:54:57;;;;;;;;;;;14.50;65.40;;;;;;5084033;28;19923;-67
2023/05/09 09:57:35;;;;;;;;;;;14.50;65.40;;;;;;5071847;28;20029;-67
2023/05/09 10:00:04;;;;;;;;;;;14.40;65.60;;;;;;5050043;28;19916;-65
2023/05/09 10:02:31;;;;;;;;;;;14.40;65.60;;;;;;5090559;28;20464;-65
2023/05/09 10:05:07;;;;;;;;;;;14.30;65.90;;;;;;5088857;28;20021;-67
2023/05/09 10:07:34;;;;;;;;;;;14.30;65.80;;;;;;5080606;28;19916;-65
2023/05/09 10:10:04;;;;;;;;;;;14.30;65.50;;;;;;5092165;28;19924;-65
2023/05/09 10:12:37;;;;;;;;;;;14.30;65.70;;;;;;5087181;28;19964;-65
2023/05/09 10:15:04;;;;;;;;;;;14.30;65.80;;;;;;5075553;28;20444;-64
2023/05/09 10:17:31;;;;;;;;;;;14.30;65.30;;;;;;5057059;28;20015;-67
2023/05/09 10:19:58;;;;;;;;;;;14.30;65.40;;;;;;5054837;28;19917;-65
2023/05/09 11:03:10;;;;;;;;;;;14.50;64.90;;;;;;5057646;28;19937;-76
2023/05/09 11:05:40;;;;;;;;;;;14.40;65.20;;;;;;5074434;28;19917;-78
2023/05/09 11:08:20;;;;;;;;;;;14.40;65.20;;;;;;5051940;28;19917;-76
2023/05/09 11:10:47;;;;;;;;;;;14.40;65.30;;;;;;5068211;28;20006;-75
2023/05/09 11:13:17;;;;;;;;;;;14.30;65.00;;;;;;5069837;28;19947;-78
2023/05/09 11:15:53;;;;;;;;;;;14.30;65.00;;;;;;5051481;28;19923;-82
2023/05/09 11:18:20;;;;;;;;;;;14.30;65.30;;;;;;5070285;28;19920;-77
2023/05/09 11:20:48;;;;;;;;;;;14.30;65.20;;;;;;5050042;28;20713;-78
2023/05/09 11:23:18;;;;;;;;;;;14.30;65.20;;;;;;5068047;28;19939;-80
2023/05/09 11:25:48;;;;;;;;;;;14.30;65.40;;;;;;5068547;28;19913;-82
2023/05/09 11:28:30;;;;;;;;;;;14.30;65.70;;;;;;5069758;28;20494;-85
2023/05/09 11:31:09;;;;;;;;;;;14.30;66.40;;;;;;5068019;28;19913;-82
2023/05/09 11:33:36;;;;;;;;;;;14.30;66.90;;;;;;5068923;28;19916;-84
2023/05/09 11:36:19;;;;;;;;;;;14.30;67.10;;;;;;5031300;28;19928;-87
2023/05/09 11:38:46;;;;;;;;;;;14.30;67.50;;;;;;5067498;28;19927;-86
2023/05/09 11:41:13;;;;;;;;;;;14.30;67.70;;;;;;5071973;28;19913;-92
2023/05/09 11:43:40;;;;;;;;;;;14.30;68.00;;;;;;5069327;28;19952;-76
2023/05/09 11:46:07;;;;;;;;;;;14.30;68.10;;;;;;5068734;28;19913;-76
2023/05/09 11:48:41;;;;;;;;;;;14.20;68.40;;;;;;5049881;28;20329;-77
2023/05/09 11:51:07;;;;;;;;;;;14.20;68.40;;;;;;5068833;28;19916;-86
2023/05/09 11:53:35;;;;;;;;;;;14.30;67.80;;;;;;5050200;28;19916;-86
2023/05/09 11:56:02;;;;;;;;;;;14.20;67.70;;;;;;5066866;28;19916;-87
2023/05/09 11:58:29;;;;;;;;;;;14.20;67.80;;;;;;5064846;28;19975;-77
